Terminal Aerodrome Forecast
Issued by NWS Raleigh/Durham, NC

Home | Current Version | Previous Version | Text Only | Print | Product List | Glossary On
Versions: 1 2 3 4 5 6 7 8 9 10 11 12 13 14 15 16 17 18 19 20 21 22 23 24 25 26 27 28 29 30 31 32 33 34 35 36 37 38 39 40 41 42
000
FTUS42 KRAH 172123 AAD
TAFFAY
TAF AMD
KFAY 172123Z 1721/1818 03010KT 2SM -RA BR OVC035
      TEMPO 1721/1724 36012G20KT 1 1/2SM -SNRA BR BKN006 OVC025
     FM180000 35011KT 4SM BR BKN015 OVC035
     FM180600 31010KT P6SM SCT050=

USA.gov is the U.S. government's official web portal to all federal, state and local government web resources and services.